Time;durP1;ratioP1;P1;durP2;ratioP2;P2;SDS_P1;SDS_P2;PMS_P1;PMS_P2;Temp;Humidity;BMP_temperature;BMP_pressure;BME280_temperature;BME280_humidity;BME280_pressure;Samples;Min_cycle;Max_cycle;Signal;HPM_P1;HPM_P2
2024/02/24 11:03:49;;;;;;;7.00;3.40;;;;;;;13.56;62.65;98114.36;103310;1280;637606;-70
2024/02/24 11:06:43;;;;;;;4.90;3.40;;;;;;;13.61;62.64;98114.29;105119;1262;94389;-71
2024/02/24 11:09:38;;;;;;;5.00;3.00;;;;;;;13.65;62.60;98117.06;105005;1260;94386;-73
2024/02/24 11:12:11;;;;;;;5.80;3.20;;;;;;;13.69;62.68;98113.55;105037;1264;106927;-71
2024/02/24 11:14:46;;;;;;;5.30;3.10;;;;;;;13.71;62.63;98113.58;105148;1262;95167;-68
2024/02/24 11:17:49;;;;;;;4.50;3.10;;;;;;;13.70;62.61;98118.81;98564;1258;9335448;-71
2024/02/24 11:20:37;;;;;;;;;;;;;;;13.72;62.51;98117.45;105185;1268;94302;-71
2024/02/24 11:23:32;;;;;;;5.70;3.10;;;;;;;13.73;62.43;98120.39;105455;1258;107156;-72
2024/02/24 11:26:10;;;;;;;4.40;3.20;;;;;;;13.74;62.35;98125.05;105130;1263;95534;-73
2024/02/24 11:28:39;;;;;;;4.50;3.20;;;;;;;13.76;62.51;98132.85;105179;1257;107760;-71
2024/02/24 11:31:07;;;;;;;5.30;2.90;;;;;;;13.77;62.27;98130.80;105330;1257;96185;-71
2024/02/24 11:33:37;;;;;;;5.20;3.20;;;;;;;13.76;62.19;98131.12;104943;1262;95184;-70
2024/02/24 11:36:06;;;;;;;5.20;3.00;;;;;;;13.76;62.20;98131.10;105339;1260;108489;-71
2024/02/24 11:38:34;;;;;;;5.50;3.50;;;;;;;13.77;61.86;98126.71;105529;1253;95237;-71
2024/02/24 11:41:04;;;;;;;4.70;3.10;;;;;;;13.77;61.99;98129.73;105472;1253;107573;-71
2024/02/24 11:43:32;;;;;;;5.50;3.30;;;;;;;13.80;61.86;98130.71;105530;1254;95345;-69
2024/02/24 11:46:02;;;;;;;4.10;3.10;;;;;;;13.80;61.91;98125.33;105488;1256;96091;-70
2024/02/24 11:48:30;;;;;;;6.40;3.70;;;;;;;13.83;62.07;98127.72;105343;1258;108650;-71
2024/02/24 11:50:59;;;;;;;6.50;3.70;;;;;;;13.88;61.93;98123.11;105552;1253;95307;-71
2024/02/24 11:53:29;;;;;;;6.10;3.20;;;;;;;13.90;62.00;98130.27;105639;1276;108092;-70
2024/02/24 11:55:58;;;;;;;5.00;3.00;;;;;;;13.92;61.94;98131.63;105429;1256;95153;-70
2024/02/24 11:58:26;;;;;;;5.70;3.40;;;;;;;13.92;61.80;98126.59;105535;1254;96193;-70
2024/02/24 12:00:55;;;;;;;5.10;3.60;;;;;;;13.94;61.77;98128.59;105546;1254;108516;-72
2024/02/24 12:03:23;;;;;;;5.50;3.10;;;;;;;13.96;61.83;98127.26;105342;1257;95686;-71
2024/02/24 12:05:52;;;;;;;5.60;3.50;;;;;;;14.00;61.81;98126.02;105510;1268;107612;-68
2024/02/24 12:08:22;;;;;;;5.10;3.10;;;;;;;14.03;61.95;98126.80;105445;1258;95254;-73
2024/02/24 12:10:49;;;;;;;6.20;3.50;;;;;;;14.07;61.87;98132.40;105446;1255;95206;-70
2024/02/24 12:13:18;;;;;;;5.20;3.50;;;;;;;14.09;61.78;98132.44;105577;1253;108357;-71
2024/02/24 12:15:48;;;;;;;5.70;3.50;;;;;;;14.10;61.87;98138.70;105636;1254;95253;-70
2024/02/24 12:18:16;;;;;;;5.70;3.50;;;;;;;14.13;61.68;98138.79;105428;1256;107381;-70
2024/02/24 12:20:50;;;;;;;5.30;3.60;;;;;;;14.12;61.65;98142.95;105345;1256;95265;-68
2024/02/24 12:23:21;;;;;;;6.50;3.70;;;;;;;14.10;61.67;98147.96;105462;1257;95259;-71
2024/02/24 12:25:49;;;;;;;4.90;3.30;;;;;;;14.08;61.64;98144.40;105488;1257;108091;-69
2024/02/24 12:28:18;;;;;;;5.20;3.50;;;;;;;14.06;61.64;98145.70;105740;1253;96078;-70
2024/02/24 12:30:46;;;;;;;5.40;3.40;;;;;;;14.06;61.55;98143.46;105477;1257;107377;-68
2024/02/24 12:33:16;;;;;;;6.40;3.80;;;;;;;14.03;61.34;98146.19;105555;1257;95334;-69
2024/02/24 12:35:48;;;;;;;5.00;3.50;;;;;;;14.00;61.24;98153.47;105485;1256;95265;-71
2024/02/24 12:38:17;;;;;;;5.30;3.60;;;;;;;13.98;61.33;98154.34;105430;1253;108092;-80
2024/02/24 12:40:46;;;;;;;6.90;3.70;;;;;;;14.00;61.32;98157.02;105460;1254;96025;-70
2024/02/24 12:43:14;;;;;;;5.80;3.10;;;;;;;14.02;61.21;98157.61;105297;1258;107528;-71
2024/02/24 12:45:42;;;;;;;6.60;3.90;;;;;;;14.03;61.19;98163.90;105519;1253;96076;-80
2024/02/24 12:48:10;;;;;;;4.80;3.20;;;;;;;14.04;61.23;98167.83;105596;1253;95278;-79
2024/02/24 12:50:39;;;;;;;4.40;3.10;;;;;;;14.04;61.09;98170.81;105416;1257;108151;-78
2024/02/24 12:54:18;;;;;;;5.00;3.30;;;;;;;14.01;61.06;98171.06;105413;1257;96078;-80
2024/02/24 12:56:49;;;;;;;4.90;3.20;;;;;;;13.97;61.11;98175.81;105207;1254;106604;-73
2024/02/24 12:59:18;;;;;;;5.30;3.50;;;;;;;13.95;61.13;98180.69;105644;1254;96181;-73
2024/02/24 13:01:46;;;;;;;5.70;3.80;;;;;;;13.97;61.16;98178.39;105739;1253;95336;-73
2024/02/24 13:04:14;;;;;;;4.80;3.30;;;;;;;13.99;61.06;98183.67;105335;1257;108616;-72
2024/02/24 13:07:03;;;;;;;5.70;3.40;;;;;;;13.95;61.04;98193.82;105231;1258;95632;-81
2024/02/24 13:09:31;;;;;;;6.40;3.20;;;;;;;13.93;61.05;98199.38;105204;1259;107689;-70
2024/02/24 13:11:59;;;;;;;5.00;3.00;;;;;;;13.90;61.05;98195.58;105628;1268;95232;-70
2024/02/24 13:14:28;;;;;;;5.90;3.40;;;;;;;13.90;60.99;98194.39;105528;1254;95237;-70
2024/02/24 13:16:55;;;;;;;5.80;3.60;;;;;;;13.90;61.18;98195.30;105473;1258;108271;-68
2024/02/24 13:19:23;;;;;;;5.30;3.20;;;;;;;13.89;61.18;98204.30;105463;1254;95826;-76
2024/02/24 13:21:51;;;;;;;5.20;3.30;;;;;;;13.89;61.08;98201.84;105309;1254;107072;-75
2024/02/24 13:24:19;;;;;;;5.00;3.40;;;;;;;13.87;61.09;98213.41;105204;1253;95249;-74
2024/02/24 13:26:47;;;;;;;4.70;3.20;;;;;;;13.85;61.08;98216.21;105649;1257;96450;-75
2024/02/24 13:29:15;;;;;;;7.90;4.90;;;;;;;13.86;60.95;98216.89;105631;1253;107645;-75
2024/02/24 13:31:43;;;;;;;15.30;7.90;;;;;;;13.85;61.00;98219.60;105677;1254;95513;-75
2024/02/24 13:34:12;;;;;;;12.20;6.30;;;;;;;13.84;60.97;98221.90;105369;1261;107627;-74
2024/02/24 13:36:41;;;;;;;8.90;4.80;;;;;;;13.84;60.97;98230.58;105631;1257;95284;-76
2024/02/24 13:39:09;;;;;;;9.20;4.10;;;;;;;13.85;60.94;98230.52;105368;1254;96185;-73
2024/02/24 13:41:57;;;;;;;6.90;3.60;;;;;;;13.85;60.97;98231.94;105415;1253;108768;-75
2024/02/24 13:45:34;;;;;;;6.50;3.70;;;;;;;13.84;60.89;98234.75;105469;1260;96326;-74
2024/02/24 13:48:02;;;;;;;5.70;3.70;;;;;;;13.84;60.91;98242.35;105366;1257;107621;-74
2024/02/24 13:50:30;;;;;;;6.70;4.20;;;;;;;13.86;60.84;98238.31;105683;1254;95249;-74
2024/02/24 13:52:58;;;;;;;6.50;3.80;;;;;;;13.84;60.76;98245.39;105474;1258;95217;-74
2024/02/24 13:55:26;;;;;;;5.60;3.60;;;;;;;13.81;60.68;98248.16;105189;1257;108585;-72
2024/02/24 13:57:55;;;;;;;4.90;3.50;;;;;;;13.78;60.69;98249.16;105447;1257;96182;-73
2024/02/24 14:00:23;;;;;;;5.40;3.20;;;;;;;13.76;60.63;98251.05;105586;1255;107694;-72
2024/02/24 14:02:50;;;;;;;6.10;3.60;;;;;;;13.71;60.67;98248.77;105426;1258;95240;-73
2024/02/24 14:05:18;;;;;;;5.00;3.50;;;;;;;13.68;60.66;98256.41;105710;1254;95252;-74
2024/02/24 14:07:47;;;;;;;5.40;3.60;;;;;;;13.64;60.63;98264.46;105725;1257;108299;-75
2024/02/24 14:10:15;;;;;;;4.40;3.30;;;;;;;13.61;60.52;98263.85;105356;1254;95390;-74
2024/02/24 14:12:43;;;;;;;6.50;3.40;;;;;;;13.58;60.56;98271.67;105324;1258;107634;-73
2024/02/24 14:15:12;;;;;;;5.30;3.30;;;;;;;13.54;60.48;98272.73;105152;1272;96086;-73
2024/02/24 14:17:40;;;;;;;4.90;3.50;;;;;;;13.49;60.40;98283.23;105304;1257;95291;-75
2024/02/24 14:20:09;;;;;;;5.10;3.80;;;;;;;13.45;60.39;98285.73;105261;1259;108547;-75
2024/02/24 14:22:52;;;;;;;6.30;3.40;;;;;;;13.40;60.47;98288.63;105192;1257;95174;-75
2024/02/24 14:25:20;;;;;;;6.40;4.20;;;;;;;13.38;60.45;98290.11;105410;1257;107494;-74
2024/02/24 14:27:48;;;;;;;7.20;4.60;;;;;;;13.36;60.42;98296.71;105298;1257;95234;-74
2024/02/24 14:30:16;;;;;;;7.10;4.70;;;;;;;13.33;60.44;98301.84;105154;1259;95276;-74
2024/02/24 14:32:45;;;;;;;7.20;4.60;;;;;;;13.30;60.41;98303.86;105167;1255;108081;-75
2024/02/24 14:35:18;;;;;;;8.40;4.30;;;;;;;13.26;60.34;98305.63;105582;1254;95353;-75
2024/02/24 14:37:46;;;;;;;10.30;6.20;;;;;;;13.24;60.39;98318.33;105468;1257;108115;-75
2024/02/24 14:40:14;;;;;;;14.20;7.80;;;;;;;13.21;60.35;98324.44;105435;1254;95260;-74
2024/02/24 14:42:42;;;;;;;10.90;7.30;;;;;;;13.18;60.36;98327.63;105525;1254;95167;-74
2024/02/24 14:45:10;;;;;;;13.50;7.80;;;;;;;13.15;60.36;98333.27;105585;1254;108602;-75
2024/02/24 14:47:39;;;;;;;12.40;8.50;;;;;;;13.12;60.35;98337.09;105441;1258;95575;-73
2024/02/24 14:50:08;;;;;;;13.70;8.50;;;;;;;13.09;60.40;98337.92;105810;1257;107603;-75
2024/02/24 14:52:37;;;;;;;22.00;12.00;;;;;;;13.07;60.41;98348.77;105121;1261;95348;-75
2024/02/24 14:55:06;;;;;;;22.10;12.40;;;;;;;13.05;60.37;98353.75;105346;1254;96204;-74
2024/02/24 14:57:33;;;;;;;22.40;13.30;;;;;;;13.03;60.37;98356.29;105323;1254;110494;-75
2024/02/24 15:00:06;;;;;;;28.80;15.40;;;;;;;13.01;60.42;98361.67;105510;1272;96200;-75
2024/02/24 15:02:34;;;;;;;15.00;9.40;;;;;;;12.99;60.38;98364.69;105720;1253;107524;-73
2024/02/24 15:05:20;;;;;;;12.80;7.80;;;;;;;12.97;60.26;98371.59;105266;1268;95268;-74
2024/02/24 15:07:48;;;;;;;14.70;9.00;;;;;;;12.93;60.41;98369.77;105238;1258;95275;-74
2024/02/24 15:10:16;;;;;;;13.50;7.90;;;;;;;12.88;60.43;98376.66;105535;1269;108306;-75
2024/02/24 15:12:44;;;;;;;18.70;9.40;;;;;;;12.84;60.46;98380.77;105421;1253;95441;-73
2024/02/24 15:15:13;;;;;;;21.30;10.70;;;;;;;12.77;60.43;98389.08;105475;1257;105715;-73
2024/02/24 15:17:41;;;;;;;26.70;14.50;;;;;;;12.70;60.54;98398.45;105507;1257;96589;-76
2024/02/24 15:20:12;;;;;;;23.20;12.50;;;;;;;12.62;60.49;98404.81;105393;1254;96578;-74
2024/02/24 15:22:41;;;;;;;23.20;13.30;;;;;;;12.56;60.52;98405.22;105700;1256;109871;-74
2024/02/24 15:25:09;;;;;;;20.10;12.70;;;;;;;12.51;60.60;98401.41;105799;1253;96510;-74
2024/02/24 15:27:37;;;;;;;21.20;12.70;;;;;;;12.46;60.68;98410.63;105427;1257;107576;-75
2024/02/24 15:30:07;;;;;;;18.00;10.90;;;;;;;12.40;60.63;98413.80;105496;1259;97240;-74
2024/02/24 15:32:35;;;;;;;20.80;14.40;;;;;;;12.34;60.59;98418.20;105614;1253;96583;-75
2024/02/24 15:35:03;;;;;;;21.40;14.10;;;;;;;12.28;60.66;98422.88;105469;1256;109934;-74
2024/02/24 15:37:34;;;;;;;22.20;15.60;;;;;;;12.21;60.74;98427.72;105831;1253;97874;-74
2024/02/24 15:40:07;;;;;;;24.30;15.40;;;;;;;12.15;60.85;98433.91;105620;1254;107661;-74
2024/02/24 15:42:35;;;;;;;24.70;14.00;;;;;;;12.12;60.78;98434.28;106521;1253;96680;-74
2024/02/24 15:45:04;;;;;;;27.00;15.30;;;;;;;12.08;60.83;98438.70;105447;1256;96630;-73
2024/02/24 15:47:32;;;;;;;21.60;13.30;;;;;;;12.03;60.77;98440.33;105878;1253;108650;-75
2024/02/24 15:50:01;;;;;;;22.20;12.90;;;;;;;11.99;60.74;98444.81;105497;1256;96565;-75
2024/02/24 15:52:29;;;;;;;19.70;11.80;;;;;;;11.95;60.89;98454.70;105196;1253;107224;-73
2024/02/24 15:54:57;;;;;;;22.40;13.40;;;;;;;11.91;60.80;98461.32;105486;1256;96595;-74
2024/02/24 15:57:25;;;;;;;102.70;62.60;;;;;;;11.86;60.84;98468.27;105411;1253;97551;-75
2024/02/24 15:59:52;;;;;;;54.50;28.70;;;;;;;11.80;60.87;98472.17;105689;1257;109662;-74
2024/02/24 16:02:20;;;;;;;45.50;26.50;;;;;;;11.76;60.81;98475.21;105474;1269;96600;-75
2024/02/24 16:04:48;;;;;;;38.70;24.00;;;;;;;11.68;60.84;98479.28;105454;1257;107769;-75
2024/02/24 16:07:16;;;;;;;34.10;17.70;;;;;;;11.61;60.90;98480.94;105606;1259;97912;-74
2024/02/24 16:09:45;;;;;;;39.10;23.60;;;;;;;11.58;60.88;98487.60;106629;1256;96536;-74
2024/02/24 16:12:13;;;;;;;30.60;18.40;;;;;;;11.54;60.92;98496.77;105589;1253;109949;-72
2024/02/24 16:14:40;;;;;;;34.70;19.00;;;;;;;11.49;60.93;98497.92;105617;1258;96594;-74
2024/02/24 16:17:08;;;;;;;25.70;16.30;;;;;;;11.44;60.89;98501.88;105553;1257;107985;-73
2024/02/24 16:19:39;;;;;;;20.50;14.60;;;;;;;11.39;60.86;98502.16;105492;1258;96586;-74
2024/02/24 16:22:07;;;;;;;16.50;10.30;;;;;;;11.34;60.89;98504.01;108651;1255;94601;-80
2024/02/24 16:24:36;;;;;;;18.40;10.10;;;;;;;11.28;60.85;98504.30;108630;1254;109623;-76
2024/02/24 16:27:04;;;;;;;21.50;11.80;;;;;;;11.23;60.94;98510.05;108508;1254;95723;-80
2024/02/24 16:29:32;;;;;;;27.70;17.50;;;;;;;11.20;60.87;98514.95;105397;1256;108435;-78
2024/02/24 16:32:00;;;;;;;36.30;22.30;;;;;;;11.12;60.84;98521.95;105602;1253;96695;-77
2024/02/24 16:34:28;;;;;;;32.40;20.00;;;;;;;11.02;60.89;98521.15;105618;1253;97115;-76
2024/02/24 16:36:56;;;;;;;35.00;18.60;;;;;;;10.95;60.93;98520.20;104844;1256;111641;-78
2024/02/24 16:39:25;;;;;;;30.90;18.80;;;;;;;10.88;61.01;98521.65;104961;1256;96687;-76
2024/02/24 16:41:55;;;;;;;33.80;18.80;;;;;;;10.84;61.12;98524.95;105647;1256;108046;-78
2024/02/24 16:44:23;;;;;;;28.10;17.50;;;;;;;10.79;61.02;98525.73;105528;1257;97925;-78
2024/02/24 16:46:50;;;;;;;27.20;17.30;;;;;;;10.73;61.20;98534.21;105367;1254;96592;-78
2024/02/24 16:49:18;;;;;;;34.10;20.40;;;;;;;10.66;61.18;98539.23;105660;1257;110011;-79
2024/02/24 16:51:47;;;;;;;36.00;18.90;;;;;;;10.59;61.27;98542.11;105636;1257;97077;-79
2024/02/24 16:54:16;;;;;;;34.30;19.10;;;;;;;10.53;61.25;98541.13;105323;1256;107612;-78
2024/02/24 16:56:44;;;;;;;30.20;17.80;;;;;;;10.48;61.33;98544.20;105490;1259;96587;-75
2024/02/24 16:59:12;;;;;;;32.70;20.10;;;;;;;10.43;61.18;98547.08;105669;1253;96608;-76
2024/02/24 17:01:40;;;;;;;72.50;37.40;;;;;;;10.37;61.22;98552.90;105894;1254;109956;-78
2024/02/24 17:04:08;;;;;;;75.20;36.10;;;;;;;10.34;61.37;98555.05;105798;1257;97436;-77
2024/02/24 17:06:36;;;;;;;62.00;30.00;;;;;;;10.34;61.43;98558.95;105608;1256;107339;-78
2024/02/24 17:09:04;;;;;;;45.60;24.80;;;;;;;10.27;61.38;98563.52;105706;1256;96711;-78
2024/02/24 17:11:32;;;;;;;44.80;23.30;;;;;;;10.19;61.46;98574.09;105352;1259;96572;-76
2024/02/24 17:14:01;;;;;;;44.90;24.50;;;;;;;10.13;61.46;98578.46;105125;1259;110361;-76
2024/02/24 17:16:29;;;;;;;52.60;27.60;;;;;;;10.09;61.50;98581.41;104864;1257;96617;-77
2024/02/24 17:18:56;;;;;;;55.50;29.50;;;;;;;10.07;61.61;98587.46;104485;1256;108510;-78
2024/02/24 17:21:25;;;;;;;65.90;34.60;;;;;;;10.05;61.70;98584.06;108582;1253;94605;-77
2024/02/24 17:23:56;;;;;;;60.00;33.00;;;;;;;10.03;61.74;98583.36;108651;1253;94569;-78
2024/02/24 17:26:24;;;;;;;61.70;34.00;;;;;;;10.00;61.70;98588.31;108605;1254;110009;-74
2024/02/24 17:28:52;;;;;;;60.10;32.70;;;;;;;9.96;61.78;98587.55;108643;1253;95389;-80
2024/02/24 17:31:20;;;;;;;62.80;34.00;;;;;;;9.95;61.68;98586.95;108042;1256;107428;-79
2024/02/24 17:33:48;;;;;;;62.50;34.20;;;;;;;9.94;61.73;98600.52;105672;1256;96651;-78
2024/02/24 17:36:16;;;;;;;66.40;39.10;;;;;;;9.90;61.83;98599.02;105518;1256;96592;-81
2024/02/24 17:38:44;;;;;;;65.70;36.70;;;;;;;9.84;61.84;98604.58;105146;1260;108821;-80
2024/02/24 17:41:12;;;;;;;78.10;44.20;;;;;;;9.80;61.67;98611.66;105617;1258;96645;-81
2024/02/24 17:43:41;;;;;;;84.90;46.90;;;;;;;9.75;61.86;98611.83;105553;1258;107429;-80
2024/02/24 17:46:09;;;;;;;91.20;50.40;;;;;;;9.75;62.01;98619.49;105470;1256;96706;-81
2024/02/24 17:48:37;;;;;;;92.00;51.70;;;;;;;9.75;62.20;98622.63;105323;1254;96632;-81
2024/02/24 17:51:05;;;;;;;83.80;43.50;;;;;;;9.73;62.15;98624.60;105466;1256;109741;-81
2024/02/24 17:53:33;;;;;;;79.40;40.10;;;;;;;9.71;61.97;98630.92;105336;1256;96718;-81
2024/02/24 17:56:01;;;;;;;71.40;37.30;;;;;;;9.66;62.17;98631.66;105435;1258;107736;-81
2024/02/24 17:58:29;;;;;;;67.80;34.00;;;;;;;9.61;62.27;98634.14;105215;1258;96988;-74
2024/02/24 18:01:11;;;;;;;67.00;33.70;;;;;;;9.58;62.22;98639.36;105450;1258;96742;-81
2024/02/24 18:03:39;;;;;;;69.40;34.80;;;;;;;9.55;62.41;98636.19;105695;1256;109477;-82
2024/02/24 18:06:07;;;;;;;68.00;32.60;;;;;;;9.56;62.51;98635.83;105606;1256;97920;-75
2024/02/24 18:08:35;;;;;;;62.00;29.60;;;;;;;9.55;62.37;98636.92;105444;1257;107395;-81
2024/02/24 18:11:03;;;;;;;57.40;29.30;;;;;;;9.54;62.54;98641.41;105676;1256;97524;-77
2024/02/24 18:13:31;;;;;;;58.20;29.40;;;;;;;9.51;62.52;98641.09;105343;1254;96584;-77
2024/02/24 18:15:59;;;;;;;63.80;32.00;;;;;;;9.50;62.70;98640.13;105602;1254;110340;-81
2024/02/24 18:18:27;;;;;;;60.50;29.70;;;;;;;9.48;62.69;98642.60;105561;1256;96557;-83
2024/02/24 18:20:55;;;;;;;62.60;31.40;;;;;;;9.47;62.70;98648.48;105248;1259;107227;-79
2024/02/24 18:23:23;;;;;;;53.80;29.10;;;;;;;9.45;62.79;98653.05;105590;1257;96546;-81
2024/02/24 18:25:52;;;;;;;51.70;26.30;;;;;;;9.45;62.65;98655.73;105471;1254;96569;-83
2024/02/24 18:28:20;;;;;;;48.90;24.70;;;;;;;9.42;62.63;98657.84;105624;1254;109731;-77
2024/02/24 18:30:48;;;;;;;45.30;23.60;;;;;;;9.41;62.77;98658.48;105217;1258;96602;-81
2024/02/24 18:33:16;;;;;;;54.50;27.30;;;;;;;9.39;62.73;98659.48;105305;1270;107966;-83
2024/02/24 18:35:44;;;;;;;50.60;26.50;;;;;;;9.38;62.93;98662.23;105570;1259;96598;-82
2024/02/24 18:38:14;;;;;;;52.70;25.30;;;;;;;9.38;62.97;98663.98;105694;1257;96549;-79
2024/02/24 18:40:42;;;;;;;49.20;23.70;;;;;;;9.39;62.96;98669.25;105327;1253;110421;-81
2024/02/24 18:43:10;;;;;;;50.00;24.50;;;;;;;9.35;62.71;98668.66;105281;1255;96734;-83
2024/02/24 18:45:41;;;;;;;49.10;24.40;;;;;;;9.30;62.86;98669.53;105455;1259;107673;-82
2024/02/24 18:48:10;;;;;;;50.10;26.80;;;;;;;9.29;63.12;98668.20;105001;1254;96619;-84
2024/02/24 18:50:38;;;;;;;57.70;25.60;;;;;;;9.30;63.17;98674.84;105509;1254;96676;-81
2024/02/24 18:53:06;;;;;;;52.30;25.60;;;;;;;9.30;63.20;98670.59;105945;1256;109819;-80
2024/02/24 18:55:34;;;;;;;54.30;24.00;;;;;;;9.31;63.18;98670.22;105134;1258;97299;-76
2024/02/24 18:58:03;;;;;;;51.50;24.20;;;;;;;9.29;63.11;98669.44;105765;1257;106402;-75
2024/02/24 19:00:31;;;;;;;61.10;26.30;;;;;;;9.25;63.05;98671.31;105467;1256;96643;-77
2024/02/24 19:02:59;;;;;;;57.50;29.10;;;;;;;9.20;62.98;98667.48;105439;1257;96606;-76
2024/02/24 19:05:30;;;;;;;53.00;25.90;;;;;;;9.17;63.34;98668.54;105444;1256;109211;-76
2024/02/24 19:07:58;;;;;;;53.30;27.20;;;;;;;9.14;63.28;98664.73;105443;1256;97924;-80
2024/02/24 19:10:26;;;;;;;46.30;23.20;;;;;;;9.10;63.23;98663.00;104938;1259;107182;-80
2024/02/24 19:12:54;;;;;;;48.20;22.90;;;;;;;9.08;63.25;98664.40;105548;1254;97912;-81
2024/02/24 19:15:22;;;;;;;43.80;21.00;;;;;;;9.04;63.31;98659.96;105383;1256;96601;-81
2024/02/24 19:17:50;;;;;;;44.60;21.10;;;;;;;8.99;63.15;98662.11;105632;1256;109987;-80
2024/02/24 19:20:19;;;;;;;37.80;20.80;;;;;;;8.95;63.23;98666.59;105682;1257;96596;-78
2024/02/24 19:22:47;;;;;;;44.50;20.30;;;;;;;8.92;63.39;98667.64;105664;1260;107632;-80
2024/02/24 19:25:15;;;;;;;38.40;19.80;;;;;;;8.90;63.40;98667.31;104994;1256;96735;-80
2024/02/24 19:27:45;;;;;;;33.10;16.60;;;;;;;8.88;63.36;98668.89;105153;1256;96603;-78
2024/02/24 19:30:13;;;;;;;32.00;15.90;;;;;;;8.86;63.49;98665.33;105692;1257;109945;-79
2024/02/24 19:32:41;;;;;;;27.70;15.70;;;;;;;8.83;63.48;98666.55;105504;1254;96584;-80
2024/02/24 19:35:13;;;;;;;30.50;15.50;;;;;;;8.81;63.56;98666.38;105005;1254;108561;-80
2024/02/24 19:37:41;;;;;;;32.30;16.20;;;;;;;8.80;63.59;98670.48;104896;1259;96587;-78
2024/02/24 19:40:10;;;;;;;26.90;14.60;;;;;;;8.77;63.83;98671.07;105526;1269;97305;-80
2024/02/24 19:42:38;;;;;;;30.60;16.10;;;;;;;8.72;63.57;98669.98;105277;1256;109921;-77
2024/02/24 19:45:07;;;;;;;30.70;14.70;;;;;;;8.70;63.58;98674.01;104894;1256;96594;-77
2024/02/24 19:47:35;;;;;;;27.80;15.40;;;;;;;8.64;63.48;98680.29;105078;1258;107729;-79
2024/02/24 19:50:03;;;;;;;30.50;15.80;;;;;;;8.57;63.68;98684.30;104960;1269;96597;-80
2024/02/24 19:52:31;;;;;;;31.50;17.70;;;;;;;8.54;63.76;98689.48;104839;1254;97756;-78
2024/02/24 19:55:00;;;;;;;28.20;15.90;;;;;;;8.53;63.87;98687.98;104866;1260;110593;-79
2024/02/24 19:57:27;;;;;;;33.70;17.90;;;;;;;8.52;63.74;98691.07;105359;1254;96612;-80
2024/02/24 19:59:56;;;;;;;42.90;20.40;;;;;;;8.47;63.88;98689.55;105636;1258;107281;-78
2024/02/24 20:02:25;;;;;;;52.90;24.10;;;;;;;8.47;63.85;98692.40;105235;1258;96585;-77
2024/02/24 20:04:53;;;;;;;56.40;24.70;;;;;;;8.45;63.97;98690.55;105025;1259;96610;-80
2024/02/24 20:07:21;;;;;;;41.90;20.40;;;;;;;8.41;63.89;98692.80;105577;1257;110783;-76
2024/02/24 20:09:50;;;;;;;37.80;17.70;;;;;;;8.37;63.94;98693.27;104885;1260;96597;-80
2024/02/24 20:12:18;;;;;;;29.10;14.00;;;;;;;8.33;63.96;98696.40;105460;1254;107218;-75
2024/02/24 20:14:48;;;;;;;29.40;14.40;;;;;;;8.31;64.21;98697.41;105373;1259;97305;-80
2024/02/24 20:17:17;;;;;;;36.70;15.60;;;;;;;8.31;64.08;98701.61;105059;1253;97515;-79
2024/02/24 20:19:46;;;;;;;44.30;22.30;;;;;;;8.29;64.09;98697.02;105502;1258;109898;-78
2024/02/24 20:22:15;;;;;;;54.60;23.70;;;;;;;8.25;64.05;98700.98;104918;1256;97910;-78
2024/02/24 20:24:43;;;;;;;38.50;19.20;;;;;;;8.19;63.92;98698.02;105517;1256;107699;-79
2024/02/24 20:27:13;;;;;;;36.90;17.90;;;;;;;8.11;64.21;98696.81;104691;1256;96595;-80
2024/02/24 20:29:41;;;;;;;26.00;14.10;;;;;;;8.07;63.99;98699.71;105579;1256;97554;-78
2024/02/24 20:32:09;;;;;;;23.00;12.70;;;;;;;8.03;64.10;98695.55;106307;1256;109871;-76
2024/02/24 20:34:37;;;;;;;23.70;14.40;;;;;;;8.00;64.12;98694.17;104952;1258;96958;-78
2024/02/24 20:37:05;;;;;;;22.50;11.90;;;;;;;7.98;64.14;98695.23;104889;1259;107931;-79
2024/02/24 20:39:33;;;;;;;24.00;11.70;;;;;;;7.94;64.04;98690.40;105169;1257;96671;-79
2024/02/24 20:42:01;;;;;;;26.70;13.60;;;;;;;7.89;64.08;98693.02;104851;1259;96581;-77
2024/02/24 20:44:30;;;;;;;31.20;15.60;;;;;;;7.89;64.42;98695.47;105504;1256;110363;-76
2024/02/24 20:46:58;;;;;;;32.20;15.80;;;;;;;7.90;64.26;98692.55;105726;1254;96593;-77
2024/02/24 20:49:27;;;;;;;36.90;16.50;;;;;;;7.88;64.45;98690.18;104720;1266;107593;-80
2024/02/24 20:51:55;;;;;;;38.20;17.70;;;;;;;7.88;64.31;98691.64;105498;1256;96513;-79
2024/02/24 20:54:31;;;;;;;41.00;17.40;;;;;;;7.85;64.49;98693.23;105258;1257;97166;-79
2024/02/24 20:56:59;;;;;;;33.20;15.60;;;;;;;7.85;64.50;98698.18;105241;1256;109907;-76
2024/02/24 20:59:27;;;;;;;43.90;16.90;;;;;;;7.81;64.59;98701.64;105575;1254;96613;-79
2024/02/24 21:01:55;;;;;;;42.10;17.50;;;;;;;7.79;64.54;98699.63;105638;1266;108109;-75
2024/02/24 21:04:26;;;;;;;41.20;17.40;;;;;;;7.79;64.58;98700.56;104861;1257;96590;-79
2024/02/24 21:06:55;;;;;;;37.20;16.10;;;;;;;7.76;64.95;98704.61;105085;1256;96603;-78
2024/02/24 21:09:24;;;;;;;35.90;15.30;;;;;;;7.74;64.85;98708.42;105103;1256;110073;-79
2024/02/24 21:11:53;;;;;;;38.30;17.60;;;;;;;7.76;64.89;98709.56;105172;1254;96507;-80
2024/02/24 21:14:24;;;;;;;34.80;14.80;;;;;;;7.75;64.85;98716.86;105617;1256;107728;-76
2024/02/24 21:16:52;;;;;;;31.70;14.80;;;;;;;7.74;64.76;98716.77;105493;1256;96606;-80
2024/02/24 21:19:19;;;;;;;36.10;14.90;;;;;;;7.71;64.69;98715.39;105706;1257;96642;-73
2024/02/24 21:21:48;;;;;;;46.20;16.30;;;;;;;7.65;64.61;98716.83;104394;1267;110104;-79
2024/02/24 21:24:20;;;;;;;35.80;16.10;;;;;;;7.60;64.64;98712.91;104484;1257;97952;-76
2024/02/24 21:26:48;;;;;;;42.30;18.30;;;;;;;7.58;64.97;98710.02;104806;1256;106841;-78
2024/02/24 21:29:16;;;;;;;40.40;17.70;;;;;;;7.59;65.03;98707.66;105618;1259;96519;-79
2024/02/24 21:31:44;;;;;;;36.60;14.80;;;;;;;7.58;64.89;98707.70;105356;1254;96501;-76
2024/02/24 21:34:12;;;;;;;35.60;15.30;;;;;;;7.58;65.09;98708.65;105450;1254;110164;-77
2024/02/24 21:36:41;;;;;;;30.20;15.20;;;;;;;7.57;64.96;98710.64;105723;1257;96608;-77
2024/02/24 21:39:09;;;;;;;33.40;14.70;;;;;;;7.54;65.06;98708.38;105589;1264;107610;-77
2024/02/24 21:41:37;;;;;;;34.20;15.20;;;;;;;7.53;65.16;98700.17;105416;1259;96589;-78
2024/02/24 21:44:05;;;;;;;31.60;14.40;;;;;;;7.55;65.20;98699.14;105498;1257;96526;-76
2024/02/24 21:46:33;;;;;;;34.80;15.00;;;;;;;7.56;65.31;98697.25;105645;1257;109348;-79
2024/02/24 21:49:01;;;;;;;29.90;15.40;;;;;;;7.56;65.46;98696.92;105335;1254;97796;-80
2024/02/24 21:51:30;;;;;;;27.40;13.00;;;;;;;7.54;65.24;98693.56;104847;1257;107809;-78
2024/02/24 21:53:59;;;;;;;25.80;13.90;;;;;;;7.52;65.28;98693.88;104681;1267;96613;-79
2024/02/24 21:56:28;;;;;;;34.40;15.60;;;;;;;7.52;65.31;98692.80;104720;1256;96594;-78
2024/02/24 21:58:56;;;;;;;28.90;13.60;;;;;;;7.55;65.48;98689.58;105016;1256;110134;-75
2024/02/24 22:01:24;;;;;;;27.50;14.20;;;;;;;7.57;65.63;98685.41;105894;1254;96606;-77
2024/02/24 22:03:52;;;;;;;32.90;16.10;;;;;;;7.58;65.59;98673.70;105506;1256;107623;-75
2024/02/24 22:06:20;;;;;;;36.90;18.70;;;;;;;7.59;65.70;98677.84;105699;1260;96699;-78
2024/02/24 22:08:48;;;;;;;35.30;18.70;;;;;;;7.63;65.74;98677.98;105111;1256;96584;-80
2024/02/24 22:11:16;;;;;;;37.60;20.30;;;;;;;7.68;65.93;98674.83;105367;1256;110429;-78
2024/02/24 22:13:44;;;;;;;36.90;21.10;;;;;;;7.73;65.93;98671.96;104907;1257;96617;-79
2024/02/24 22:16:13;;;;;;;37.40;20.70;;;;;;;7.80;65.77;98673.63;104864;1263;107991;-79
2024/02/24 22:18:43;;;;;;;35.10;19.70;;;;;;;7.87;66.03;98671.90;104860;1256;96670;-76
2024/02/24 22:21:11;;;;;;;34.90;18.20;;;;;;;7.94;65.95;98671.84;105589;1256;97560;-78
2024/02/24 22:23:39;;;;;;;35.40;19.10;;;;;;;7.99;66.11;98672.35;105336;1255;109936;-74
2024/02/24 22:26:07;;;;;;;36.60;18.50;;;;;;;8.03;65.97;98674.03;105501;1258;97947;-79
2024/02/24 22:28:35;;;;;;;31.10;18.10;;;;;;;8.05;65.94;98666.09;105386;1270;107674;-77